Time;durP1;ratioP1;P1;durP2;ratioP2;P2;SDS_P1;SDS_P2;PMS_P1;PMS_P2;Temp;Humidity;BMP_temperature;BMP_pressure;BME280_temperature;BME280_humidity;BME280_pressure;Samples;Min_cycle;Max_cycle;Signal;HPM_P1;HPM_P2
2023/03/13 00:01:52;;;;;;;28.50;6.03;;;10.00;99.90;;;;;;4998525;28;20500;-82
2023/03/13 00:04:17;;;;;;;22.53;4.10;;;10.00;99.90;;;;;;5015228;28;20030;-83
2023/03/13 00:06:43;;;;;;;27.00;4.60;;;10.00;99.90;;;;;;5014804;28;20034;-82
2023/03/13 00:09:11;;;;;;;22.97;3.90;;;9.90;99.90;;;;;;5016392;28;20185;-83
2023/03/13 00:11:37;;;;;;;30.87;5.57;;;9.90;99.90;;;;;;5016239;28;20022;-83
2023/03/13 00:14:04;;;;;;;25.23;3.97;;;9.90;99.90;;;;;;4998360;28;20063;-82
2023/03/13 00:16:30;;;;;;;18.17;4.53;;;9.90;99.90;;;;;;4998828;28;20030;-82
2023/03/13 00:18:57;;;;;;;21.50;4.33;;;9.90;99.90;;;;;;4998717;28;20022;-81
2023/03/13 00:21:25;;;;;;;24.27;4.97;;;9.90;99.90;;;;;;5014892;28;20389;-82
2023/03/13 00:23:51;;;;;;;25.50;4.57;;;9.90;99.90;;;;;;4998079;28;20394;-80
2023/03/13 00:26:19;;;;;;;23.07;4.97;;;9.90;99.90;;;;;;4998801;28;20041;-82
2023/03/13 00:28:45;;;;;;;21.87;4.03;;;9.90;99.90;;;;;;4998111;28;20053;-81
2023/03/13 00:31:15;;;;;;;20.93;4.47;;;9.90;99.90;;;;;;4981795;28;20482;-83
2023/03/13 00:33:46;;;;;;;21.30;3.70;;;9.90;99.90;;;;;;5014936;28;20029;-81
2023/03/13 00:36:18;;;;;;;19.37;3.37;;;9.90;99.90;;;;;;4998215;28;20049;-81
2023/03/13 00:38:44;;;;;;;20.73;4.33;;;9.90;99.90;;;;;;4978634;28;20050;-80
2023/03/13 00:41:12;;;;;;;18.20;4.67;;;9.90;99.90;;;;;;4978243;28;20050;-81
2023/03/13 00:43:39;;;;;;;20.30;4.27;;;9.90;99.90;;;;;;4978871;28;20026;-81
2023/03/13 00:46:05;;;;;;;22.33;4.40;;;9.90;99.90;;;;;;4979240;28;20050;-82
2023/03/13 00:48:32;;;;;;;23.47;4.43;;;9.90;99.90;;;;;;4978878;28;20486;-82
2023/03/13 00:50:58;;;;;;;27.93;4.07;;;9.90;99.90;;;;;;4978667;28;20030;-82
2023/03/13 00:53:23;;;;;;;21.80;3.93;;;9.90;99.90;;;;;;4995557;28;20062;-81
2023/03/13 00:55:59;;;;;;;16.40;3.77;;;9.90;99.90;;;;;;4996048;28;20065;-82
2023/03/13 00:58:27;;;;;;;19.17;3.73;;;9.90;99.90;;;;;;4996135;28;20022;-82
2023/03/13 01:00:53;;;;;;;22.53;4.73;;;9.80;99.90;;;;;;4995525;28;20125;-83
2023/03/13 01:03:21;;;;;;;24.33;3.83;;;9.80;99.90;;;;;;4978032;28;20367;-81
2023/03/13 01:06:01;;;;;;;24.47;4.53;;;9.80;99.90;;;;;;4977768;28;20023;-82
2023/03/13 01:08:28;;;;;;;25.37;5.03;;;9.80;99.90;;;;;;4978265;28;20190;-82
2023/03/13 01:11:01;;;;;;;22.03;4.70;;;9.80;99.90;;;;;;4995455;28;20471;-81
2023/03/13 01:13:29;;;;;;;23.73;4.70;;;9.80;99.90;;;;;;4962980;28;20046;-82
2023/03/13 01:15:55;;;;;;;23.13;4.07;;;9.80;99.90;;;;;;4995488;28;20038;-82
2023/03/13 01:18:21;;;;;;;17.67;3.77;;;9.80;99.90;;;;;;4978452;28;20032;-81
2023/03/13 01:20:46;;;;;;;25.90;4.23;;;9.80;99.90;;;;;;4961743;28;20609;-82
2023/03/13 01:23:12;;;;;;;18.43;3.57;;;9.80;99.90;;;;;;4962091;28;20490;-82
2023/03/13 01:25:39;;;;;;;20.60;4.17;;;9.80;99.90;;;;;;4978123;28;20605;-82
2023/03/13 01:28:05;;;;;;;24.77;4.63;;;9.70;99.90;;;;;;4978118;28;20030;-82
2023/03/13 01:30:30;;;;;;;22.63;3.77;;;9.80;99.90;;;;;;4977758;28;20038;-82
2023/03/13 01:32:56;;;;;;;20.10;4.90;;;9.70;99.90;;;;;;4977587;28;20050;-82
2023/03/13 01:35:22;;;;;;;25.43;4.80;;;9.80;99.90;;;;;;4977339;28;20043;-82
2023/03/13 01:37:47;;;;;;;28.50;5.57;;;9.80;99.90;;;;;;4965278;28;20414;-82
2023/03/13 01:40:13;;;;;;;20.30;4.43;;;9.80;99.90;;;;;;4980947;28;20425;-82
2023/03/13 01:42:49;;;;;;;26.27;4.87;;;9.80;99.90;;;;;;4980934;28;20128;-84
2023/03/13 01:45:53;;;;;;;25.87;4.90;;;9.80;99.90;;;;;;4991332;28;20030;-82
2023/03/13 01:48:24;;;;;;;20.53;4.17;;;9.80;99.90;;;;;;4996259;28;20064;-82
2023/03/13 01:50:49;;;;;;;26.47;5.60;;;9.80;99.90;;;;;;4993205;28;20027;-82
2023/03/13 01:53:15;;;;;;;18.10;4.00;;;9.70;99.90;;;;;;4977540;28;20389;-83
2023/03/13 01:55:41;;;;;;;20.43;4.93;;;9.80;99.90;;;;;;4994438;28;20515;-82
2023/03/13 01:58:07;;;;;;;13.13;3.20;;;9.70;99.90;;;;;;4977249;28;20117;-83
2023/03/13 02:00:35;;;;;;;15.97;3.83;;;9.80;99.90;;;;;;4994155;28;20391;-83
2023/03/13 02:03:07;;;;;;;23.23;5.60;;;9.70;99.90;;;;;;4977170;28;20033;-82
2023/03/13 02:05:34;;;;;;;13.80;4.90;;;9.70;99.90;;;;;;4977628;28;20027;-82
2023/03/13 02:08:06;;;;;;;17.07;4.47;;;9.70;99.90;;;;;;4995277;28;20034;-83
2023/03/13 02:10:37;;;;;;;18.60;5.00;;;9.80;99.90;;;;;;4977560;28;20022;-82
2023/03/13 02:13:03;;;;;;;19.80;5.10;;;9.70;99.90;;;;;;4978264;28;20113;-83
2023/03/13 02:15:30;;;;;;;17.50;4.43;;;9.80;99.90;;;;;;4977922;28;20053;-84
2023/03/13 02:17:56;;;;;;;21.50;5.17;;;9.80;99.90;;;;;;4994462;28;20093;-83
2023/03/13 02:20:22;;;;;;;18.83;5.07;;;9.80;99.90;;;;;;4994828;28;20054;-83
2023/03/13 02:23:07;;;;;;;17.53;5.10;;;9.80;99.90;;;;;;4994112;28;20023;-82
2023/03/13 02:25:48;;;;;;;16.57;5.07;;;9.90;99.90;;;;;;4994106;28;20078;-83
2023/03/13 02:28:26;;;;;;;17.30;4.43;;;9.90;99.90;;;;;;4976886;28;20042;-83
2023/03/13 02:30:55;;;;;;;15.30;4.27;;;9.90;99.90;;;;;;4993899;28;20032;-82
2023/03/13 02:33:25;;;;;;;18.30;5.23;;;9.90;99.90;;;;;;4976626;28;20498;-83
2023/03/13 02:35:51;;;;;;;18.27;5.37;;;10.00;99.90;;;;;;4992930;28;20035;-82
2023/03/13 02:38:24;;;;;;;22.63;6.73;;;10.00;99.90;;;;;;4976164;28;20495;-83
2023/03/13 02:40:52;;;;;;;21.77;5.53;;;10.10;99.90;;;;;;4992596;28;20030;-82
2023/03/13 02:43:23;;;;;;;16.57;7.07;;;10.10;99.90;;;;;;4992833;28;20026;-81
2023/03/13 02:46:03;;;;;;;11.47;5.23;;;10.10;99.90;;;;;;4976708;28;20081;-82
2023/03/13 02:48:32;;;;;;;19.77;6.83;;;10.10;99.90;;;;;;4976280;28;20034;-81
2023/03/13 02:50:58;;;;;;;20.80;7.13;;;10.10;99.90;;;;;;4993733;28;20054;-82
2023/03/13 02:53:24;;;;;;;19.07;6.37;;;10.20;99.90;;;;;;4976620;28;20031;-82
2023/03/13 02:55:50;;;;;;;17.37;7.20;;;10.20;99.90;;;;;;4976309;28;20035;-82
2023/03/13 02:58:15;;;;;;;17.03;7.07;;;10.20;99.90;;;;;;4960442;28;20037;-82
2023/03/13 03:00:41;;;;;;;15.07;5.87;;;10.30;99.90;;;;;;4992082;28;20049;-81
2023/03/13 03:03:06;;;;;;;20.20;7.03;;;10.30;99.90;;;;;;4976456;28;20045;-81
2023/03/13 03:05:32;;;;;;;15.13;6.67;;;10.30;99.90;;;;;;4992589;28;20113;-82
2023/03/13 03:07:58;;;;;;;17.53;6.53;;;10.30;99.90;;;;;;4976285;28;20027;-81
2023/03/13 03:10:23;;;;;;;17.60;7.77;;;10.40;99.90;;;;;;4976074;28;20026;-82
2023/03/13 03:12:49;;;;;;;14.60;6.27;;;10.40;99.90;;;;;;4993516;28;20466;-81
2023/03/13 03:15:14;;;;;;;14.27;6.57;;;10.50;99.90;;;;;;4976311;28;20031;-82
2023/03/13 03:17:40;;;;;;;15.70;6.50;;;10.50;99.90;;;;;;4976060;28;20026;-82
2023/03/13 03:20:10;;;;;;;15.27;6.60;;;10.60;99.90;;;;;;4976114;28;20129;-83
2023/03/13 03:22:37;;;;;;;20.93;7.57;;;10.60;99.90;;;;;;4993651;28;20027;-82
2023/03/13 03:25:05;;;;;;;17.70;6.53;;;10.60;99.90;;;;;;4992462;28;20077;-82
2023/03/13 03:27:31;;;;;;;19.70;7.03;;;10.70;99.90;;;;;;4976057;28;20113;-82
2023/03/13 03:29:56;;;;;;;15.53;6.60;;;10.70;99.90;;;;;;4959902;28;20077;-81
2023/03/13 03:32:22;;;;;;;15.03;5.93;;;10.70;99.90;;;;;;4975824;28;20581;-82
2023/03/13 03:34:48;;;;;;;14.82;6.47;;;10.80;99.90;;;;;;4992523;28;20037;-83
2023/03/13 03:37:13;;;;;;;16.20;6.57;;;10.90;99.90;;;;;;4992533;28;20054;-81
2023/03/13 03:39:39;;;;;;;13.88;6.35;;;10.90;99.90;;;;;;4975923;28;20042;-81
2023/03/13 03:42:05;;;;;;;16.83;7.37;;;10.90;99.90;;;;;;4959709;28;20038;-82
2023/03/13 03:44:30;;;;;;;16.73;7.30;;;10.90;99.90;;;;;;4959657;28;20039;-81
2023/03/13 03:46:56;;;;;;;12.97;7.00;;;11.00;99.90;;;;;;4960089;28;20046;-81
2023/03/13 03:49:22;;;;;;;19.30;7.87;;;11.00;99.90;;;;;;4959801;28;20027;-83
2023/03/13 03:51:48;;;;;;;17.92;8.40;;;11.00;99.90;;;;;;4976268;28;20375;-82
2023/03/13 03:54:13;;;;;;;11.20;7.57;;;11.10;99.90;;;;;;4975920;28;20034;-82
2023/03/13 03:56:39;;;;;;;13.17;7.57;;;11.10;99.90;;;;;;4959560;28;20033;-81
2023/03/13 03:59:05;;;;;;;12.57;8.10;;;11.10;99.90;;;;;;4978232;28;20035;-82
2023/03/13 04:01:30;;;;;;;16.40;7.70;;;11.10;99.90;;;;;;4995199;28;20042;-82
2023/03/13 04:03:56;;;;;;;14.27;7.30;;;11.10;99.90;;;;;;4979770;28;20034;-82
2023/03/13 04:06:22;;;;;;;14.07;7.70;;;11.20;99.90;;;;;;4963213;28;20097;-83
2023/03/13 04:08:47;;;;;;;11.10;7.00;;;11.20;99.90;;;;;;4997181;28;20026;-83
2023/03/13 04:11:13;;;;;;;14.77;6.83;;;11.20;99.90;;;;;;4979097;28;20510;-84
2023/03/13 04:13:38;;;;;;;11.98;6.93;;;11.20;99.90;;;;;;4963223;28;20038;-82
2023/03/13 04:16:08;;;;;;;13.03;7.60;;;11.20;99.90;;;;;;4962824;28;20057;-84
2023/03/13 04:18:33;;;;;;;15.53;7.57;;;11.30;99.90;;;;;;4963103;28;20026;-82
2023/03/13 04:21:04;;;;;;;13.45;7.20;;;11.30;99.90;;;;;;4978940;28;20045;-82
2023/03/13 04:23:30;;;;;;;13.80;7.30;;;11.30;99.90;;;;;;4978918;28;20105;-82
2023/03/13 04:25:55;;;;;;;16.80;8.77;;;11.30;99.90;;;;;;4962975;28;20550;-83
2023/03/13 04:28:21;;;;;;;15.90;8.80;;;11.30;99.90;;;;;;4962778;28;20117;-82
2023/03/13 04:30:47;;;;;;;15.15;8.25;;;11.40;99.90;;;;;;4978580;28;20125;-83
2023/03/13 04:33:12;;;;;;;15.05;8.05;;;11.40;99.90;;;;;;4962881;28;20030;-82
2023/03/13 04:35:38;;;;;;;16.27;9.13;;;11.40;99.90;;;;;;4979180;28;20425;-83
2023/03/13 04:38:03;;;;;;;16.30;9.73;;;11.40;99.90;;;;;;4978595;28;20086;-83
2023/03/13 04:40:29;;;;;;;17.65;8.63;;;11.40;99.90;;;;;;4978404;28;20042;-82
2023/03/13 04:42:55;;;;;;;14.35;7.85;;;11.40;99.90;;;;;;4994940;28;20030;-83
2023/03/13 04:45:20;;;;;;;15.63;9.13;;;11.50;99.90;;;;;;4995782;28;20058;-83
2023/03/13 04:47:46;;;;;;;16.58;9.82;;;11.50;99.90;;;;;;4978702;28;20030;-82
2023/03/13 04:50:12;;;;;;;17.20;8.73;;;11.50;99.90;;;;;;4995995;28;20026;-81
2023/03/13 04:52:37;;;;;;;13.63;9.18;;;11.50;99.90;;;;;;4994953;28;20038;-81
2023/03/13 04:55:03;;;;;;;15.70;9.27;;;11.60;99.90;;;;;;4994797;28;20034;-82
2023/03/13 04:57:29;;;;;;;14.45;8.60;;;11.60;99.90;;;;;;4995913;28;20030;-82
2023/03/13 04:59:55;;;;;;;13.02;9.05;;;11.60;99.90;;;;;;4995537;28;20110;-81
2023/03/13 05:02:21;;;;;;;14.60;9.80;;;11.60;99.90;;;;;;4995420;28;20512;-83
2023/03/13 05:04:46;;;;;;;14.50;9.55;;;11.70;99.90;;;;;;4995963;28;20026;-83
2023/03/13 05:07:12;;;;;;;17.55;9.60;;;11.70;99.90;;;;;;4994515;28;20037;-81
2023/03/13 05:09:38;;;;;;;18.35;10.05;;;11.70;99.90;;;;;;4976886;28;20633;-81
2023/03/13 05:12:03;;;;;;;14.43;10.00;;;11.70;99.90;;;;;;4978260;28;20023;-82
2023/03/13 05:14:29;;;;;;;16.10;9.25;;;11.70;99.90;;;;;;4977901;28;20039;-81
2023/03/13 05:16:55;;;;;;;16.77;9.63;;;11.70;99.90;;;;;;4994521;28;20034;-81
2023/03/13 05:19:20;;;;;;;16.80;8.23;;;11.70;99.90;;;;;;4994721;28;20034;-81
2023/03/13 05:21:46;;;;;;;15.38;8.48;;;11.70;99.90;;;;;;4978114;28;20129;-83
2023/03/13 05:24:11;;;;;;;18.95;9.23;;;11.80;99.90;;;;;;4993901;28;20446;-82
2023/03/13 05:26:37;;;;;;;13.70;8.40;;;11.80;99.90;;;;;;4995165;28;20026;-82
2023/03/13 05:29:03;;;;;;;14.40;7.72;;;11.90;99.90;;;;;;4977979;28;20030;-82
2023/03/13 05:31:28;;;;;;;11.60;7.45;;;11.90;99.90;;;;;;4995033;28;20026;-82
2023/03/13 05:33:54;;;;;;;12.32;7.90;;;11.90;99.90;;;;;;4977938;28;20027;-81
2023/03/13 05:36:20;;;;;;;11.90;6.85;;;11.90;99.90;;;;;;4977903;28;20030;-81
2023/03/13 05:38:45;;;;;;;19.45;8.00;;;11.90;99.90;;;;;;4993737;28;20062;-82
2023/03/13 05:41:11;;;;;;;13.07;7.07;;;12.00;99.90;;;;;;4994943;28;20095;-81
2023/03/13 05:43:36;;;;;;;12.65;5.97;;;11.90;99.90;;;;;;4977598;28;20034;-82
2023/03/13 05:46:02;;;;;;;13.93;6.65;;;12.00;99.90;;;;;;4961727;28;20057;-82
2023/03/13 05:48:28;;;;;;;15.40;7.13;;;12.00;99.90;;;;;;4961657;28;20031;-82
2023/03/13 05:50:53;;;;;;;12.25;6.25;;;12.00;99.90;;;;;;4994748;28;20474;-81
2023/03/13 05:53:19;;;;;;;11.48;6.38;;;12.00;99.90;;;;;;4977534;28;20039;-81
2023/03/13 05:55:45;;;;;;;11.70;6.90;;;12.00;99.90;;;;;;4977170;28;20030;-81
2023/03/13 05:58:10;;;;;;;11.90;6.13;;;12.10;99.90;;;;;;4961512;28;20030;-81
2023/03/13 06:00:36;;;;;;;10.68;6.72;;;12.10;99.90;;;;;;4993176;28;20557;-81
2023/03/13 06:03:02;;;;;;;12.23;6.07;;;12.10;99.90;;;;;;4993608;28;20045;-81
2023/03/13 06:05:27;;;;;;;11.43;5.10;;;12.20;99.90;;;;;;4961093;28;20125;-81
2023/03/13 06:07:53;;;;;;;9.25;5.53;;;12.20;99.90;;;;;;4961007;28;20521;-81
2023/03/13 06:10:19;;;;;;;10.63;4.60;;;12.20;99.90;;;;;;4961200;28;20030;-83
2023/03/13 06:12:51;;;;;;;9.25;5.53;;;12.20;99.90;;;;;;4994247;28;20116;-82
2023/03/13 06:15:17;;;;;;;11.40;4.90;;;12.20;99.90;;;;;;4994635;28;20106;-82
2023/03/13 06:17:42;;;;;;;12.82;5.03;;;12.20;99.90;;;;;;4994358;28;20109;-83
2023/03/13 06:20:09;;;;;;;10.70;5.28;;;12.20;99.90;;;;;;4960618;28;20037;-81
2023/03/13 06:22:34;;;;;;;14.50;4.63;;;12.30;99.90;;;;;;4976829;28;20049;-82
2023/03/13 06:25:00;;;;;;;9.05;4.25;;;12.30;99.90;;;;;;4960414;28;20034;-81
2023/03/13 06:27:25;;;;;;;7.30;4.50;;;12.30;99.90;;;;;;4976825;28;20057;-82
2023/03/13 06:29:51;;;;;;;10.05;3.85;;;12.30;99.90;;;;;;4960766;28;20030;-81
2023/03/13 06:32:17;;;;;;;12.20;4.43;;;12.40;99.90;;;;;;4993496;28;20026;-81
2023/03/13 06:34:42;;;;;;;9.57;4.57;;;12.40;99.90;;;;;;4995962;28;20018;-83
2023/03/13 06:37:08;;;;;;;8.50;4.05;;;12.40;99.90;;;;;;5003168;28;20108;-83
2023/03/13 06:39:34;;;;;;;9.90;3.72;;;12.50;99.90;;;;;;5002215;28;20049;-83
2023/03/13 06:41:59;;;;;;;10.43;3.65;;;12.50;99.90;;;;;;5010543;28;20137;-83
2023/03/13 06:44:26;;;;;;;11.38;3.65;;;12.50;99.90;;;;;;4985326;28;20053;-83
2023/03/13 06:46:52;;;;;;;9.40;3.33;;;12.50;99.90;;;;;;4992948;28;20026;-83
2023/03/13 06:49:18;;;;;;;9.80;3.45;;;12.50;99.90;;;;;;4992275;28;20031;-83
2023/03/13 06:51:44;;;;;;;7.68;3.38;;;12.60;99.90;;;;;;4987670;28;20529;-83
2023/03/13 06:54:09;;;;;;;9.70;2.90;;;12.60;99.90;;;;;;4971360;28;20524;-82
2023/03/13 06:56:35;;;;;;;9.13;2.92;;;12.60;99.90;;;;;;4973147;28;20038;-83
2023/03/13 06:59:00;;;;;;;10.25;3.72;;;12.70;99.90;;;;;;4980220;28;20084;-82
2023/03/13 07:01:26;;;;;;;10.63;3.05;;;12.70;99.90;;;;;;4992922;28;20069;-82
2023/03/13 07:03:52;;;;;;;9.95;2.58;;;12.70;99.90;;;;;;5012227;28;20061;-83
2023/03/13 07:06:18;;;;;;;10.70;2.55;;;12.70;99.90;;;;;;4979143;28;20080;-82
2023/03/13 07:08:44;;;;;;;11.48;3.00;;;12.70;99.90;;;;;;4986807;28;20026;-82
2023/03/13 07:11:11;;;;;;;5.75;2.55;;;12.70;99.90;;;;;;4995705;28;20048;-82
2023/03/13 07:13:38;;;;;;;8.88;2.78;;;12.70;99.90;;;;;;5014021;28;20034;-83
2023/03/13 07:16:07;;;;;;;7.55;2.50;;;12.70;99.90;;;;;;4996859;28;20026;-84
2023/03/13 07:18:33;;;;;;;12.85;2.70;;;12.80;99.90;;;;;;4995944;28;20121;-82
2023/03/13 07:21:00;;;;;;;9.70;2.97;;;12.80;99.90;;;;;;4978869;28;20068;-82
2023/03/13 07:23:27;;;;;;;10.10;2.90;;;12.90;99.90;;;;;;4996467;28;20045;-83
2023/03/13 07:25:55;;;;;;;7.93;2.38;;;12.90;99.90;;;;;;4995136;28;20026;-82
2023/03/13 07:28:21;;;;;;;9.93;2.58;;;12.90;99.90;;;;;;4979418;28;20057;-83
2023/03/13 07:30:47;;;;;;;7.22;2.05;;;13.00;99.90;;;;;;4978719;28;20038;-82
2023/03/13 07:33:13;;;;;;;8.38;2.80;;;13.00;99.90;;;;;;5014307;28;20355;-83
2023/03/13 07:35:38;;;;;;;7.43;2.22;;;13.00;99.90;;;;;;4982956;28;20533;-82
2023/03/13 07:38:04;;;;;;;6.07;2.03;;;13.10;99.90;;;;;;4998874;28;20060;-82
2023/03/13 07:40:30;;;;;;;10.02;2.83;;;13.10;99.90;;;;;;4967260;28;20033;-81
2023/03/13 07:42:55;;;;;;;8.68;1.80;;;13.20;99.90;;;;;;4983120;28;20026;-83
2023/03/13 07:45:21;;;;;;;7.70;2.15;;;13.20;99.90;;;;;;5017698;28;20155;-82
2023/03/13 07:47:46;;;;;;;9.40;2.30;;;13.20;99.90;;;;;;4999330;28;20069;-82
2023/03/13 07:50:12;;;;;;;10.55;2.33;;;13.20;99.90;;;;;;4982717;28;20038;-81
2023/03/13 07:52:38;;;;;;;7.72;2.13;;;13.20;99.90;;;;;;4998927;28;20038;-82
2023/03/13 07:55:03;;;;;;;9.38;1.98;;;13.20;99.90;;;;;;4982523;28;20470;-81
2023/03/13 07:57:30;;;;;;;6.68;1.80;;;13.30;99.90;;;;;;5016565;28;20057;-82
2023/03/13 07:59:55;;;;;;;7.35;1.90;;;13.30;99.90;;;;;;5016585;28;20033;-82
2023/03/13 08:02:21;;;;;;;11.18;2.40;;;13.30;99.90;;;;;;4964665;28;20042;-82
2023/03/13 08:04:51;;;;;;;8.82;1.92;;;13.30;99.90;;;;;;4982242;28;20073;-82
2023/03/13 08:07:16;;;;;;;12.57;2.70;;;13.30;99.90;;;;;;4998131;28;20390;-82
2023/03/13 08:09:42;;;;;;;12.43;3.13;;;13.20;99.90;;;;;;4981095;28;20041;-85
2023/03/13 08:12:08;;;;;;;9.90;3.15;;;13.20;99.90;;;;;;4977053;28;20033;-86
2023/03/13 08:14:34;;;;;;;9.80;2.20;;;13.20;99.90;;;;;;4979793;28;20077;-89
2023/03/13 08:16:59;;;;;;;9.70;1.85;;;13.20;99.90;;;;;;4995600;28;20030;-84
2023/03/13 08:19:25;;;;;;;6.93;1.77;;;13.20;99.90;;;;;;4995612;28;20030;-87
2023/03/13 08:21:51;;;;;;;9.50;2.13;;;13.20;99.90;;;;;;4995150;28;20074;-88
2023/03/13 08:24:16;;;;;;;8.13;2.30;;;13.20;99.90;;;;;;4996064;28;20065;-88
2023/03/13 08:26:42;;;;;;;9.60;1.63;;;13.30;99.90;;;;;;4996695;28;20110;-86
2023/03/13 08:29:10;;;;;;;8.27;1.95;;;13.30;99.90;;;;;;4998337;28;20037;-84
2023/03/13 08:31:51;;;;;;;6.55;1.33;;;13.40;99.90;;;;;;4995967;28;20533;-83
2023/03/13 08:34:18;;;;;;;9.55;2.47;;;13.50;99.90;;;;;;4996225;28;20101;-86
2023/03/13 08:36:44;;;;;;;6.40;1.50;;;13.50;99.90;;;;;;4997886;28;20600;-84
2023/03/13 08:39:17;;;;;;;9.60;2.20;;;13.50;99.90;;;;;;4995341;28;20149;-87
2023/03/13 08:41:43;;;;;;;6.82;2.08;;;13.60;99.90;;;;;;4997584;28;20502;-85
2023/03/13 08:44:12;;;;;;;6.57;2.05;;;13.60;99.90;;;;;;4997204;28;20207;-80
2023/03/13 08:46:38;;;;;;;9.70;2.35;;;13.50;99.90;;;;;;4997443;28;20057;-84
2023/03/13 08:49:05;;;;;;;7.80;1.90;;;13.50;99.90;;;;;;5015719;28;20049;-83
2023/03/13 08:51:31;;;;;;;8.25;2.15;;;13.50;99.90;;;;;;4982128;28;20030;-87
2023/03/13 08:53:57;;;;;;;6.68;2.03;;;13.50;99.90;;;;;;5015804;28;20088;-87
2023/03/13 08:56:25;;;;;;;7.15;1.88;;;13.50;99.90;;;;;;5015501;28;20030;-81
2023/03/13 08:58:52;;;;;;;8.25;1.80;;;13.50;99.90;;;;;;4981005;28;20034;-81
2023/03/13 09:01:19;;;;;;;7.65;2.00;;;13.60;99.90;;;;;;5013799;28;20219;-80
2023/03/13 09:03:45;;;;;;;3.65;1.35;;;13.60;99.90;;;;;;4997739;28;20084;-81
2023/03/13 09:06:11;;;;;;;8.23;1.83;;;13.80;99.90;;;;;;4997587;28;20034;-81
2023/03/13 09:08:38;;;;;;;6.63;1.48;;;13.80;99.90;;;;;;4997352;28;20029;-81
2023/03/13 09:11:09;;;;;;;5.63;1.55;;;14.00;99.90;;;;;;5015199;28;20034;-81
2023/03/13 09:13:38;;;;;;;7.88;1.75;;;14.10;99.90;;;;;;4997200;28;20120;-81
2023/03/13 09:16:12;;;;;;;10.48;1.60;;;14.20;99.90;;;;;;4995191;28;20485;-82
2023/03/13 09:18:38;;;;;;;5.05;1.40;;;14.20;99.90;;;;;;4995188;28;20025;-81
2023/03/13 09:21:11;;;;;;;9.20;1.63;;;14.30;99.90;;;;;;4997289;28;20386;-81
2023/03/13 09:23:37;;;;;;;6.65;1.10;;;14.30;99.90;;;;;;5014941;28;20026;-80
2023/03/13 09:26:03;;;;;;;6.50;1.35;;;14.30;99.90;;;;;;4997396;28;20089;-81
2023/03/13 09:28:29;;;;;;;5.43;1.23;;;14.40;99.90;;;;;;4980865;28;20032;-81
2023/03/13 09:30:54;;;;;;;7.75;1.20;;;14.40;99.90;;;;;;5014754;28;20034;-81
2023/03/13 09:33:24;;;;;;;6.53;1.10;;;14.50;99.90;;;;;;5014517;28;20033;-81
2023/03/13 09:35:50;;;;;;;6.15;1.02;;;14.60;99.90;;;;;;4997221;28;20018;-80
2023/03/13 09:38:20;;;;;;;7.00;1.95;;;14.60;99.90;;;;;;4984101;28;20065;-80
2023/03/13 09:40:48;;;;;;;5.28;0.90;;;14.70;99.90;;;;;;4977428;28;20394;-81
2023/03/13 09:43:38;;;;;;;4.47;1.05;;;14.70;99.90;;;;;;4994840;28;20092;-81
2023/03/13 09:46:14;;;;;;;6.80;0.95;;;14.80;99.50;;;;;;4977065;28;20602;-81
2023/03/13 09:48:44;;;;;;;4.55;1.15;;;14.80;99.10;;;;;;4994819;28;20478;-81
2023/03/13 09:51:10;;;;;;;3.17;0.82;;;14.80;99.50;;;;;;4994586;28;20034;-81
2023/03/13 09:54:05;;;;;;;5.78;1.10;;;14.80;99.60;;;;;;4977298;28;20488;-80
2023/03/13 09:56:38;;;;;;;8.00;1.40;;;14.80;99.60;;;;;;4976504;28;20038;-81
2023/03/13 09:59:27;;;;;;;9.10;1.08;;;14.80;99.60;;;;;;4977289;28;20019;-81
2023/03/13 10:01:56;;;;;;;5.82;1.20;;;14.70;98.90;;;;;;4973210;28;20238;-80
2023/03/13 10:04:31;;;;;;;7.50;1.52;;;14.70;99.20;;;;;;4991981;28;20024;-81
2023/03/13 10:06:57;;;;;;;8.88;1.20;;;14.80;99.50;;;;;;4977330;28;20026;-80
2023/03/13 10:09:29;;;;;;;6.25;1.10;;;14.80;99.20;;;;;;4977889;28;20360;-81
2023/03/13 10:12:19;;;;;;;3.67;0.90;;;14.80;98.70;;;;;;4977277;28;20069;-81
2023/03/13 10:14:58;;;;;;;7.32;1.25;;;14.90;98.70;;;;;;4994516;28;20077;-81
2023/03/13 10:17:33;;;;;;;11.07;1.40;;;14.90;98.40;;;;;;4976945;28;20041;-81
2023/03/13 10:20:27;;;;;;;6.47;0.68;;;14.90;98.40;;;;;;4977084;28;20118;-81
2023/03/13 10:23:32;;;;;;;4.35;0.80;;;15.20;99.00;;;;;;4994749;28;20558;-82
2023/03/13 10:25:58;;;;;;;5.80;0.85;;;15.60;95.50;;;;;;4994458;28;20154;-82
2023/03/13 10:28:24;;;;;;;4.43;0.70;;;15.70;95.00;;;;;;4960939;28;20062;-81
2023/03/13 10:31:23;;;;;;;2.95;0.75;;;15.70;94.40;;;;;;4976319;28;20057;-81
2023/03/13 10:33:49;;;;;;;3.17;0.82;;;15.70;93.50;;;;;;4982722;28;20047;-82
2023/03/13 10:36:15;;;;;;;4.60;0.98;;;15.70;93.70;;;;;;4976594;28;20041;-82
2023/03/13 10:38:52;;;;;;;5.75;1.00;;;15.70;93.30;;;;;;4975745;28;20402;-80
2023/03/13 10:41:26;;;;;;;6.65;1.13;;;15.80;93.40;;;;;;5013501;28;20042;-82
2023/03/13 10:43:53;;;;;;;5.45;0.95;;;15.80;93.70;;;;;;5013596;28;20033;-82
2023/03/13 10:46:35;;;;;;;6.15;0.93;;;16.00;93.00;;;;;;4995756;28;20108;-79
2023/03/13 10:49:10;;;;;;;6.75;1.02;;;16.00;92.90;;;;;;5013617;28;20025;-82
2023/03/13 10:51:39;;;;;;;8.48;1.05;;;16.20;92.30;;;;;;5013401;28;20030;-82
2023/03/13 10:54:36;;;;;;;4.03;0.80;;;16.10;91.50;;;;;;5013709;28;20029;-80
2023/03/13 10:57:16;;;;;;;6.03;1.05;;;16.10;90.80;;;;;;4972114;28;20486;-80
2023/03/13 10:59:45;;;;;;;3.67;0.70;;;16.20;91.20;;;;;;5013323;28;20038;-80
2023/03/13 11:02:35;;;;;;;6.15;1.25;;;16.30;90.60;;;;;;5012910;28;20037;-79
2023/03/13 11:05:29;;;;;;;4.13;0.80;;;16.30;90.00;;;;;;5013541;28;20018;-79
2023/03/13 11:07:55;;;;;;;3.28;0.80;;;16.40;88.20;;;;;;5011663;28;20101;-80
2023/03/13 11:10:28;;;;;;;5.88;0.95;;;16.50;89.10;;;;;;4979361;28;20410;-81
2023/03/13 11:12:56;;;;;;;4.30;0.90;;;16.90;88.60;;;;;;5012705;28;20265;-82
2023/03/13 11:15:34;;;;;;;4.70;0.70;;;17.10;86.60;;;;;;5011949;28;20022;-80
2023/03/13 11:18:23;;;;;;;3.65;0.70;;;17.20;85.00;;;;;;5004858;28;20073;-79
2023/03/13 11:20:49;;;;;;;4.80;0.82;;;17.20;84.00;;;;;;4995352;28;20037;-81
2023/03/13 11:23:28;;;;;;;4.72;0.75;;;17.40;83.20;;;;;;4995573;28;20041;-80
2023/03/13 11:26:12;;;;;;;1.75;0.60;;;17.60;83.20;;;;;;4995424;28;20122;-81
2023/03/13 11:28:49;;;;;;;;;;;17.90;81.80;;;;;;5013098;28;20037;-80
2023/03/13 11:31:21;;;;;;;3.53;0.70;;;18.20;81.00;;;;;;4994800;28;19909;-80
2023/03/13 11:33:57;;;;;;;3.08;0.90;;;18.50;78.70;;;;;;4995452;28;20033;-81
2023/03/13 11:37:07;;;;;;;2.97;0.88;;;18.90;78.10;;;;;;5012207;28;20018;-80
2023/03/13 11:39:51;;;;;;;5.28;0.77;;;19.40;75.00;;;;;;4995590;28;20056;-80
2023/03/13 11:42:35;;;;;;;2.35;0.50;;;19.80;74.80;;;;;;5012689;28;20392;-81
2023/03/13 11:45:27;;;;;;;2.90;0.43;;;20.30;73.40;;;;;;4995058;28;20030;-81
2023/03/13 11:48:05;;;;;;;5.07;0.65;;;20.80;70.50;;;;;;4995795;28;20544;-79
2023/03/13 11:50:47;;;;;;;2.58;0.40;;;21.00;67.80;;;;;;4995549;28;20022;-81
2023/03/13 11:54:00;;;;;;;1.45;0.40;;;21.00;66.70;;;;;;4994892;28;20026;-81
2023/03/13 11:56:51;;;;;;;2.28;0.52;;;21.20;66.30;;;;;;4951104;28;20046;-80
2023/03/13 11:59:22;;;;;;;2.00;0.50;;;21.20;65.30;;;;;;4994960;28;20536;-80
2023/03/13 12:02:03;;;;;;;3.25;0.60;;;21.30;64.80;;;;;;4994694;28;20138;-81
2023/03/13 12:04:35;;;;;;;3.92;0.65;;;21.10;63.10;;;;;;5012680;28;20073;-80
2023/03/13 12:07:18;;;;;;;3.53;0.60;;;20.80;64.20;;;;;;4994852;28;20458;-81
2023/03/13 12:09:56;;;;;;;3.72;0.65;;;20.50;65.30;;;;;;4994984;28;20069;-82
2023/03/13 12:12:39;;;;;;;2.22;0.43;;;20.40;65.10;;;;;;5007187;28;20462;-80
2023/03/13 12:15:10;;;;;;;4.70;0.60;;;20.30;64.80;;;;;;4994401;28;20084;-80
2023/03/13 12:17:41;;;;;;;6.00;0.73;;;20.30;64.70;;;;;;5012444;28;20064;-81
2023/03/13 12:20:22;;;;;;;2.72;0.52;;;20.10;64.40;;;;;;5014023;28;20030;-81
2023/03/13 12:23:05;;;;;;;4.00;0.70;;;19.90;65.30;;;;;;4990261;28;20084;-81
2023/03/13 12:25:37;;;;;;;4.47;0.70;;;19.80;65.40;;;;;;5015070;28;20029;-81
2023/03/13 12:28:23;;;;;;;1.92;0.70;;;19.80;65.00;;;;;;4998409;28;20101;-86
2023/03/13 12:31:12;;;;;;;3.88;0.80;;;19.80;64.70;;;;;;5012164;28;20030;-83
2023/03/13 12:33:43;;;;;;;3.00;0.80;;;19.80;65.60;;;;;;5016343;28;20767;-91
2023/03/13 12:36:25;;;;;;;4.63;0.75;;;19.80;64.90;;;;;;4998612;28;20018;-80
2023/03/13 12:38:53;;;;;;;4.47;0.47;;;19.60;65.40;;;;;;4997517;28;20489;-86
2023/03/13 12:41:27;;;;;;;4.65;0.80;;;19.60;65.40;;;;;;5015481;28;20148;-93
2023/03/13 12:43:54;;;;;;;4.95;0.68;;;19.50;65.50;;;;;;5015717;28;20036;-84
2023/03/13 12:46:25;;;;;;;6.00;0.90;;;19.60;65.90;;;;;;5015389;28;20540;-84
2023/03/13 12:49:09;;;;;;;3.97;0.93;;;19.90;67.10;;;;;;5010453;28;20504;-84
2023/03/13 12:51:51;;;;;;;2.72;0.60;;;20.60;65.90;;;;;;5035420;28;20102;-87
2023/03/13 12:54:30;;;;;;;5.35;0.80;;;21.30;64.60;;;;;;5012619;28;20042;-83
2023/03/13 12:57:09;;;;;;;4.78;0.50;;;22.00;62.90;;;;;;5014248;28;20022;-78